Time;durP1;ratioP1;P1;durP2;ratioP2;P2;SDS_P1;SDS_P2;PMS_P1;PMS_P2;Temp;Humidity;BMP_temperature;BMP_pressure;BME280_temperature;BME280_humidity;BME280_pressure;Samples;Min_cycle;Max_cycle;Signal;HPM_P1;HPM_P2
2021/12/03 00:02:03;;;;;;;9.85;5.32;;;;;;;2.15;100.00;100958.59;5121345;27;20476;-64
2021/12/03 00:04:28;;;;;;;8.68;5.15;;;;;;;2.14;100.00;100956.09;5143065;27;20035;-64
2021/12/03 00:06:55;;;;;;;8.35;5.05;;;;;;;2.14;100.00;100956.09;5122608;27;20168;-64
2021/12/03 00:09:22;;;;;;;7.78;4.88;;;;;;;2.16;100.00;100960.22;5088050;27;20046;-66
2021/12/03 00:11:47;;;;;;;9.02;4.45;;;;;;;2.19;100.00;100956.25;5125633;27;20037;-65
2021/12/03 00:14:13;;;;;;;9.38;5.18;;;;;;;2.29;100.00;100963.88;5137576;27;20039;-66
2021/12/03 00:16:38;;;;;;;8.60;4.60;;;;;;;2.23;100.00;100962.06;5143982;27;20033;-65
2021/12/03 00:19:03;;;;;;;7.13;5.03;;;;;;;2.23;100.00;100959.34;5140329;27;20109;-64
2021/12/03 00:21:30;;;;;;;10.63;4.82;;;;;;;2.26;100.00;100954.31;5106859;27;20026;-66
2021/12/03 00:23:57;;;;;;;7.30;4.72;;;;;;;2.31;100.00;100961.75;5084435;27;20031;-65
2021/12/03 00:26:22;;;;;;;7.60;3.90;;;;;;;2.28;100.00;100968.47;5085655;27;20047;-65
2021/12/03 00:28:49;;;;;;;10.02;5.25;;;;;;;2.21;100.00;100967.69;5118284;27;20042;-65
2021/12/03 00:31:15;;;;;;;8.93;4.53;;;;;;;2.20;100.00;100966.88;5087003;27;20126;-65
2021/12/03 00:33:41;;;;;;;13.27;4.10;;;;;;;2.20;100.00;100966.88;5120221;27;20092;-65
2021/12/03 00:36:09;;;;;;;10.38;4.25;;;;;;;2.26;100.00;100961.59;5120472;27;20035;-65
2021/12/03 00:38:42;;;;;;;14.35;4.70;;;;;;;2.23;100.00;100965.59;5119497;27;20068;-66
2021/12/03 00:41:11;;;;;;;7.05;3.67;;;;;;;2.14;100.00;100962.34;5128477;27;20062;-66
2021/12/03 00:43:42;;;;;;;5.60;3.90;;;;;;;2.22;100.00;100972.06;5119861;27;20437;-66
2021/12/03 00:46:09;;;;;;;8.60;4.22;;;;;;;2.18;100.00;100960.84;5136944;27;20030;-64
2021/12/03 00:48:34;;;;;;;7.70;4.28;;;;;;;2.17;100.00;100956.47;5122575;27;20029;-65
2021/12/03 00:51:01;;;;;;;7.85;4.20;;;;;;;2.13;100.00;100963.41;5140022;27;20034;-65
2021/12/03 00:53:27;;;;;;;9.40;4.10;;;;;;;2.11;100.00;100956.56;5103146;27;20026;-66
2021/12/03 00:55:52;;;;;;;8.50;4.25;;;;;;;2.05;100.00;100955.59;5141471;27;20023;-65
2021/12/03 00:58:18;;;;;;;7.15;4.20;;;;;;;2.02;100.00;100959.53;5116951;27;20706;-65
2021/12/03 01:00:43;;;;;;;9.45;3.72;;;;;;;2.09;100.00;100951.38;5141057;27;20027;-66
2021/12/03 01:03:08;;;;;;;9.77;4.40;;;;;;;2.08;100.00;100946.19;5136512;27;20105;-65
2021/12/03 01:05:34;;;;;;;10.10;3.90;;;;;;;2.14;100.00;100948.00;5140851;27;20105;-64
2021/12/03 01:08:01;;;;;;;6.75;4.47;;;;;;;2.17;100.00;100950.25;5136627;27;20110;-66
2021/12/03 01:10:27;;;;;;;7.97;3.90;;;;;;;2.18;100.00;100944.63;5100341;27;20075;-65
2021/12/03 01:12:54;;;;;;;9.48;4.00;;;;;;;2.27;100.00;100945.16;5118446;27;20037;-64
2021/12/03 01:15:23;;;;;;;13.55;3.60;;;;;;;2.30;100.00;100944.72;5140138;27;20469;-65
2021/12/03 01:17:49;;;;;;;7.53;3.47;;;;;;;2.31;100.00;100942.81;5139581;27;20110;-65
2021/12/03 01:20:15;;;;;;;10.43;3.80;;;;;;;2.33;100.00;100943.44;5139553;27;20113;-65
2021/12/03 01:22:43;;;;;;;6.28;3.47;;;;;;;2.32;100.00;100942.59;5139594;27;20039;-65
2021/12/03 01:25:10;;;;;;;7.25;3.67;;;;;;;2.38;100.00;100952.53;5136012;27;20087;-65
2021/12/03 01:27:35;;;;;;;8.55;3.50;;;;;;;2.43;100.00;100948.31;5118325;27;20031;-65
2021/12/03 01:30:03;;;;;;;10.20;3.60;;;;;;;2.41;100.00;100956.69;5141631;27;20049;-65
2021/12/03 01:32:29;;;;;;;9.70;3.47;;;;;;;2.51;100.00;100956.97;5104642;27;20042;-66
2021/12/03 01:34:54;;;;;;;6.80;3.28;;;;;;;2.40;100.00;100952.31;5140875;27;20026;-66
2021/12/03 01:37:19;;;;;;;9.52;3.30;;;;;;;2.50;100.00;100944.47;5135643;27;20050;-65
2021/12/03 01:39:45;;;;;;;9.57;3.33;;;;;;;2.51;100.00;100946.13;5115276;27;20035;-66
2021/12/03 01:42:11;;;;;;;9.95;3.30;;;;;;;2.54;100.00;100940.28;5098298;27;20115;-66
2021/12/03 01:44:36;;;;;;;11.52;3.28;;;;;;;2.65;100.00;100941.38;5133955;27;20060;-65
2021/12/03 01:47:02;;;;;;;5.97;2.97;;;;;;;2.70;100.00;100938.00;5141065;27;20022;-66
2021/12/03 01:49:28;;;;;;;7.40;3.22;;;;;;;2.73;100.00;100935.66;5101680;27;20034;-65
2021/12/03 01:51:53;;;;;;;11.68;3.40;;;;;;;2.75;100.00;100940.84;5138996;27;20102;-65
2021/12/03 01:54:19;;;;;;;10.43;3.05;;;;;;;2.69;100.00;100934.47;5139883;27;20050;-65
2021/12/03 01:56:44;;;;;;;6.78;3.00;;;;;;;2.58;100.00;100932.53;5144485;27;20086;-65
2021/12/03 01:59:10;;;;;;;9.90;3.15;;;;;;;2.69;100.00;100929.06;5138048;27;20057;-66
2021/12/03 02:01:36;;;;;;;7.53;2.47;;;;;;;2.72;100.00;100920.50;5126136;27;20065;-65
2021/12/03 02:04:03;;;;;;;8.88;3.00;;;;;;;2.70;100.00;100922.56;5143742;27;20137;-66
2021/12/03 02:06:31;;;;;;;7.03;2.58;;;;;;;2.69;100.00;100915.53;5124285;27;20232;-67
2021/12/03 02:08:57;;;;;;;4.97;2.80;;;;;;;2.68;100.00;100911.16;5104565;27;20023;-65
2021/12/03 02:11:23;;;;;;;7.55;2.72;;;;;;;2.70;100.00;100917.16;5121394;27;20552;-64
2021/12/03 02:13:49;;;;;;;7.55;3.20;;;;;;;2.70;100.00;100927.16;5119235;27;20141;-65
2021/12/03 02:16:16;;;;;;;8.57;2.60;;;;;;;2.79;100.00;100920.41;5087243;27;20035;-65
2021/12/03 02:18:42;;;;;;;5.57;2.38;;;;;;;2.84;100.00;100928.66;5123264;27;20024;-66
2021/12/03 02:21:09;;;;;;;8.40;2.95;;;;;;;2.87;100.00;100930.91;5121935;27;20039;-65
2021/12/03 02:23:36;;;;;;;6.30;2.33;;;;;;;2.93;100.00;100929.97;5084570;27;20130;-65
2021/12/03 02:26:02;;;;;;;8.10;3.08;;;;;;;3.01;100.00;100931.53;5122408;27;20114;-66
2021/12/03 02:28:30;;;;;;;6.25;2.55;;;;;;;3.04;100.00;100922.97;5117205;27;20532;-65
2021/12/03 02:30:58;;;;;;;7.03;2.63;;;;;;;3.13;100.00;100915.31;5104417;27;20134;-65
2021/12/03 02:33:24;;;;;;;7.93;2.30;;;;;;;3.18;100.00;100912.78;5122111;27;20122;-64
2021/12/03 02:35:50;;;;;;;8.45;2.63;;;;;;;3.21;100.00;100919.59;5123938;27;20122;-64
2021/12/03 02:38:19;;;;;;;10.27;2.92;;;;;;;3.09;100.00;100914.16;5098441;27;20144;-65
2021/12/03 02:40:46;;;;;;;8.27;2.72;;;;;;;3.19;100.00;100906.28;5123259;27;20096;-65
2021/12/03 02:43:12;;;;;;;13.40;2.90;;;;;;;3.23;100.00;100909.34;5119636;27;20038;-65
2021/12/03 02:45:37;;;;;;;12.85;2.42;;;;;;;3.27;100.00;100908.66;5121747;27;20062;-65
2021/12/03 02:48:05;;;;;;;5.60;2.88;;;;;;;3.25;100.00;100907.25;5105397;27;20425;-65
2021/12/03 02:50:31;;;;;;;9.13;2.65;;;;;;;3.19;100.00;100905.47;5103455;27;20187;-65
2021/12/03 02:52:57;;;;;;;7.72;2.63;;;;;;;3.22;100.00;100905.81;5120250;27;20370;-65
2021/12/03 02:55:23;;;;;;;7.80;3.10;;;;;;;3.27;100.00;100911.38;5118409;27;20336;-65
2021/12/03 02:57:49;;;;;;;7.50;2.80;;;;;;;3.26;100.00;100908.91;5120929;27;20492;-65
2021/12/03 03:00:18;;;;;;;5.18;2.47;;;;;;;3.29;100.00;100905.72;5120493;27;20524;-65
2021/12/03 03:02:45;;;;;;;9.60;2.95;;;;;;;3.27;100.00;100905.94;5122718;27;20021;-66
2021/12/03 03:05:13;;;;;;;13.60;3.38;;;;;;;3.37;100.00;100904.56;5122066;27;20952;-66
2021/12/03 03:07:38;;;;;;;12.95;3.00;;;;;;;3.43;100.00;100903.66;5119290;27;20119;-65
2021/12/03 03:10:09;;;;;;;9.95;3.38;;;;;;;3.46;100.00;100911.28;5141016;27;20424;-66
2021/12/03 03:12:35;;;;;;;12.00;2.90;;;;;;;3.35;100.00;100918.34;5119907;27;20303;-66
2021/12/03 03:15:01;;;;;;;6.70;3.13;;;;;;;3.56;100.00;100911.56;5124662;27;20019;-65
2021/12/03 03:17:30;;;;;;;9.57;2.80;;;;;;;3.53;100.00;100890.34;5140598;27;20121;-65
2021/12/03 03:19:57;;;;;;;13.93;3.17;;;;;;;3.53;100.00;100884.91;5144700;27;20023;-65
2021/12/03 03:22:23;;;;;;;9.40;2.50;;;;;;;3.49;100.00;100875.59;5137885;27;20034;-65
2021/12/03 03:24:50;;;;;;;6.38;2.30;;;;;;;3.66;100.00;100873.84;5140017;27;20457;-67
2021/12/03 03:27:20;;;;;;;10.23;3.05;;;;;;;3.64;100.00;100872.41;5122283;27;20053;-65
2021/12/03 03:29:48;;;;;;;8.23;2.80;;;;;;;3.74;100.00;100864.53;5109352;27;20027;-66
2021/12/03 03:32:15;;;;;;;6.70;2.35;;;;;;;3.76;100.00;100867.81;5144027;27;20022;-65
2021/12/03 03:34:41;;;;;;;8.88;2.65;;;;;;;3.77;100.00;100850.50;5125423;27;20231;-66
2021/12/03 03:37:06;;;;;;;8.25;2.53;;;;;;;3.80;100.00;100849.19;5140444;27;20125;-65
2021/12/03 03:39:32;;;;;;;8.73;3.13;;;;;;;3.83;100.00;100846.00;5139566;27;20042;-64
2021/12/03 03:41:58;;;;;;;10.88;2.60;;;;;;;3.83;100.00;100852.25;5143994;27;20027;-66
2021/12/03 03:44:23;;;;;;;6.78;2.45;;;;;;;3.78;100.00;100844.00;5141646;27;20038;-66
2021/12/03 03:46:51;;;;;;;8.52;2.47;;;;;;;3.75;100.00;100840.94;5143255;27;20449;-66
2021/12/03 03:49:18;;;;;;;6.75;2.25;;;;;;;3.85;100.00;100841.16;5121075;27;20106;-66
2021/12/03 03:51:45;;;;;;;6.05;2.00;;;;;;;3.72;100.00;100846.84;5119214;27;20161;-66
2021/12/03 03:54:11;;;;;;;5.63;2.42;;;;;;;3.90;100.00;100841.28;5120491;27;20130;-66
2021/12/03 03:56:36;;;;;;;5.95;2.17;;;;;;;3.95;100.00;100844.13;5118961;27;20295;-66
2021/12/03 03:59:02;;;;;;;8.82;2.13;;;;;;;3.92;100.00;100831.03;5085037;27;20088;-66
2021/12/03 04:01:27;;;;;;;6.35;1.73;;;;;;;4.04;100.00;100837.25;5122162;27;20043;-65
2021/12/03 04:03:53;;;;;;;7.18;1.95;;;;;;;4.05;100.00;100836.19;5103376;27;20504;-66
2021/12/03 04:06:20;;;;;;;6.05;2.00;;;;;;;3.99;100.00;100834.44;5121444;27;20046;-65
2021/12/03 04:08:48;;;;;;;9.43;2.47;;;;;;;4.08;100.00;100837.59;5067068;27;20168;-65
2021/12/03 04:11:17;;;;;;;11.48;2.30;;;;;;;3.98;100.00;100840.09;5085928;27;20035;-65
2021/12/03 04:13:43;;;;;;;16.65;2.42;;;;;;;4.11;100.00;100845.25;5095235;27;20030;-64
2021/12/03 04:16:09;;;;;;;11.48;2.58;;;;;;;4.03;100.00;100848.34;5106356;27;20045;-65
2021/12/03 04:18:35;;;;;;;13.88;2.55;;;;;;;4.10;100.00;100845.50;5138738;27;20023;-66
2021/12/03 04:21:00;;;;;;;10.48;2.40;;;;;;;4.09;100.00;100846.56;5140728;27;20034;-66
2021/12/03 04:23:27;;;;;;;10.23;2.55;;;;;;;4.26;100.00;100843.94;5119402;27;20053;-65
2021/12/03 04:25:52;;;;;;;8.93;2.38;;;;;;;4.32;100.00;100842.97;5140584;27;20041;-66
2021/12/03 04:28:20;;;;;;;10.73;2.28;;;;;;;4.34;100.00;100847.09;5138961;27;20026;-66
2021/12/03 04:30:46;;;;;;;9.90;2.40;;;;;;;4.34;100.00;100838.94;5104075;27;20038;-66
2021/12/03 04:33:11;;;;;;;8.98;2.65;;;;;;;4.41;100.00;100839.66;5140696;27;20507;-65
2021/12/03 04:35:37;;;;;;;11.07;2.67;;;;;;;4.18;100.00;100835.13;5120919;27;20507;-66
2021/12/03 04:38:04;;;;;;;8.80;2.38;;;;;;;4.18;100.00;100828.84;5117756;27;20043;-65
2021/12/03 04:40:32;;;;;;;9.27;2.25;;;;;;;4.39;100.00;100816.50;5117613;27;20023;-65
2021/12/03 04:42:57;;;;;;;9.20;1.90;;;;;;;4.46;100.00;100813.66;5122056;27;20030;-66
2021/12/03 04:45:25;;;;;;;7.15;1.70;;;;;;;4.28;100.00;100815.50;5102732;27;20443;-66
2021/12/03 04:47:52;;;;;;;6.53;1.67;;;;;;;4.42;100.00;100811.41;5084641;27;20079;-66
2021/12/03 04:50:21;;;;;;;8.75;1.60;;;;;;;4.47;100.00;100810.69;5121103;27;20027;-65
2021/12/03 04:52:46;;;;;;;9.18;1.90;;;;;;;4.45;100.00;100812.03;5080880;27;20219;-66
2021/12/03 04:55:13;;;;;;;8.35;1.75;;;;;;;4.62;100.00;100806.63;5083456;27;20039;-65
2021/12/03 04:57:39;;;;;;;8.50;1.85;;;;;;;4.69;100.00;100808.13;5100925;27;20035;-65
2021/12/03 05:00:09;;;;;;;9.57;1.83;;;;;;;4.82;100.00;100809.72;5105068;27;20385;-65
2021/12/03 05:02:35;;;;;;;9.15;1.95;;;;;;;4.75;100.00;100806.31;5100567;27;20027;-65
2021/12/03 05:05:04;;;;;;;7.95;1.80;;;;;;;4.82;100.00;100803.44;5123120;27;20027;-65
2021/12/03 05:08:11;;;;;;;8.43;1.40;;;;;;;4.85;100.00;100802.97;5098066;27;20461;-65
2021/12/03 05:10:18;;;;;;;8.23;1.80;;;;;;;4.93;100.00;100799.84;5110642;27;20065;-65
2021/12/03 05:12:43;;;;;;;7.57;1.55;;;;;;;4.81;100.00;100796.38;5120482;27;20039;-65
2021/12/03 05:15:09;;;;;;;8.73;2.30;;;;;;;4.78;100.00;100795.78;5120333;27;20924;-65
2021/12/03 05:17:34;;;;;;;8.23;2.10;;;;;;;4.87;100.00;100800.81;5116172;27;20047;-65
2021/12/03 05:20:00;;;;;;;9.07;1.88;;;;;;;5.14;100.00;100796.41;5119697;27;20213;-66
2021/12/03 05:22:25;;;;;;;13.00;3.15;;;;;;;4.86;100.00;100797.28;5113732;27;20354;-65
2021/12/03 05:24:51;;;;;;;8.18;1.70;;;;;;;5.23;100.00;100804.13;5099929;27;20033;-65
2021/12/03 05:27:19;;;;;;;5.95;2.10;;;;;;;5.15;100.00;100799.97;5126816;27;20066;-66
2021/12/03 05:29:47;;;;;;;6.53;1.88;;;;;;;5.13;100.00;100807.50;5070761;27;20281;-66
2021/12/03 05:32:14;;;;;;;10.30;2.03;;;;;;;5.12;100.00;100801.25;5123518;27;20034;-65
2021/12/03 05:34:40;;;;;;;6.10;1.50;;;;;;;5.30;100.00;100796.66;5117388;27;20031;-65
2021/12/03 05:37:07;;;;;;;7.15;1.52;;;;;;;5.07;100.00;100795.75;5120898;27;20046;-65
2021/12/03 05:39:36;;;;;;;4.75;1.30;;;;;;;5.20;100.00;100796.47;5120518;27;20491;-65
2021/12/03 05:42:03;;;;;;;6.50;1.52;;;;;;;5.30;100.00;100786.59;5122976;27;20098;-65
2021/12/03 05:44:30;;;;;;;8.10;1.80;;;;;;;5.30;100.00;100775.72;5120874;27;20408;-65
2021/12/03 05:46:57;;;;;;;9.98;1.85;;;;;;;5.26;100.00;100779.19;5121394;27;20030;-64
2021/12/03 05:49:23;;;;;;;6.68;1.70;;;;;;;5.27;100.00;100789.81;5123604;27;20114;-65
2021/12/03 05:51:48;;;;;;;5.35;1.50;;;;;;;5.31;100.00;100787.41;5101483;27;20053;-65
2021/12/03 05:54:14;;;;;;;7.78;1.48;;;;;;;5.47;100.00;100791.19;5103085;27;20292;-65
2021/12/03 05:56:39;;;;;;;8.13;1.63;;;;;;;5.56;100.00;100795.16;5121709;27;20440;-65
2021/12/03 05:59:04;;;;;;;9.13;1.98;;;;;;;5.31;100.00;100793.69;5122867;27;20023;-65
2021/12/03 06:01:31;;;;;;;6.13;1.85;;;;;;;5.36;100.00;100784.75;5118839;27;20174;-64
2021/12/03 06:03:56;;;;;;;8.38;1.60;;;;;;;5.38;100.00;100788.09;5085844;27;20038;-64
2021/12/03 06:06:22;;;;;;;6.82;1.85;;;;;;;5.43;100.00;100793.59;5122810;27;20397;-65
2021/12/03 06:08:49;;;;;;;5.07;1.63;;;;;;;5.49;100.00;100789.88;5117318;27;20402;-65
2021/12/03 06:11:15;;;;;;;10.10;1.92;;;;;;;5.49;100.00;100776.28;5104870;27;20023;-65
2021/12/03 06:13:40;;;;;;;8.73;1.88;;;;;;;5.30;100.00;100785.78;5102366;27;20038;-65
2021/12/03 06:16:07;;;;;;;9.43;1.88;;;;;;;5.27;100.00;100784.38;5127619;27;20027;-65
2021/12/03 06:18:33;;;;;;;6.97;1.80;;;;;;;5.56;100.00;100788.88;5125409;27;20034;-65
2021/12/03 06:20:59;;;;;;;5.55;1.88;;;;;;;5.46;100.00;100779.50;5123218;27;20027;-65
2021/12/03 06:23:24;;;;;;;8.85;1.70;;;;;;;5.35;100.00;100791.28;5121801;27;20362;-64
2021/12/03 06:25:50;;;;;;;12.23;2.15;;;;;;;5.40;100.00;100790.56;5118079;27;20615;-64
2021/12/03 06:28:15;;;;;;;6.25;1.80;;;;;;;5.63;100.00;100784.91;5085294;27;20419;-64
2021/12/03 06:30:41;;;;;;;11.38;2.28;;;;;;;5.55;100.00;100776.34;5123454;27;20537;-64
2021/12/03 06:33:06;;;;;;;9.95;2.30;;;;;;;5.43;100.00;100776.47;5124116;27;20067;-64
2021/12/03 06:35:32;;;;;;;11.07;2.22;;;;;;;5.47;100.00;100775.69;5121718;27;20134;-65
2021/12/03 06:37:57;;;;;;;15.02;2.45;;;;;;;5.37;100.00;100770.13;5120688;27;20050;-65
2021/12/03 06:40:25;;;;;;;7.97;2.40;;;;;;;5.59;100.00;100772.03;5121126;27;20531;-64
2021/12/03 06:42:51;;;;;;;11.50;2.58;;;;;;;5.60;100.00;100773.72;5117085;27;20307;-65
2021/12/03 06:45:17;;;;;;;8.38;2.40;;;;;;;5.36;100.00;100773.88;5123819;27;20038;-65
2021/12/03 06:47:43;;;;;;;9.43;2.35;;;;;;;5.36;100.00;100776.59;5123509;27;20088;-65
2021/12/03 06:50:12;;;;;;;9.43;2.40;;;;;;;5.56;100.00;100772.53;5105771;27;20046;-65
2021/12/03 06:52:40;;;;;;;10.93;2.20;;;;;;;5.66;100.00;100773.53;5097459;27;20787;-65
2021/12/03 06:55:10;;;;;;;10.07;2.60;;;;;;;5.35;100.00;100764.09;5119814;27;20089;-64
2021/12/03 06:57:35;;;;;;;7.80;1.60;;;;;;;5.44;100.00;100767.22;5117941;27;20113;-65
2021/12/03 07:00:00;;;;;;;6.63;2.15;;;;;;;5.43;100.00;100765.59;5125703;27;20623;-65
2021/12/03 07:02:26;;;;;;;7.38;1.73;;;;;;;5.47;100.00;100775.69;5121658;27;20031;-64
2021/12/03 07:04:51;;;;;;;7.10;1.88;;;;;;;5.39;100.00;100773.41;5120925;27;20454;-65
2021/12/03 07:07:17;;;;;;;8.55;1.85;;;;;;;5.43;100.00;100780.00;5128264;27;20113;-65
2021/12/03 07:09:43;;;;;;;9.23;1.75;;;;;;;5.51;100.00;100782.28;5085065;27;20034;-64
2021/12/03 07:12:10;;;;;;;7.53;1.88;;;;;;;5.55;100.00;100779.06;5125545;27;20038;-64
2021/12/03 07:14:35;;;;;;;9.57;1.83;;;;;;;5.48;100.00;100771.09;5120505;27;20054;-64
2021/12/03 07:17:05;;;;;;;9.90;2.03;;;;;;;5.53;100.00;100766.53;5123376;27;20023;-64
2021/12/03 07:19:31;;;;;;;11.73;1.77;;;;;;;5.73;100.00;100772.53;5123008;27;20035;-64
2021/12/03 07:21:57;;;;;;;9.88;2.08;;;;;;;5.69;100.00;100773.03;5101877;27;20274;-65
2021/12/03 07:24:22;;;;;;;13.35;3.05;;;;;;;5.43;100.00;100762.88;5083526;27;20245;-64
2021/12/03 07:26:48;;;;;;;11.57;3.13;;;;;;;5.35;100.00;100761.38;5102927;27;20523;-64
2021/12/03 07:29:13;;;;;;;14.30;3.97;;;;;;;5.23;100.00;100747.91;5119130;27;20031;-64
2021/12/03 07:31:38;;;;;;;12.50;3.60;;;;;;;5.15;100.00;100751.84;5102016;27;20083;-66
2021/12/03 07:34:04;;;;;;;14.70;4.68;;;;;;;5.15;100.00;100748.31;5102042;27;20103;-64
2021/12/03 07:36:29;;;;;;;13.02;3.97;;;;;;;5.07;100.00;100741.41;5123738;27;20405;-65
2021/12/03 07:38:56;;;;;;;11.98;3.92;;;;;;;4.92;100.00;100744.69;5126123;27;20047;-65
2021/12/03 07:41:21;;;;;;;12.05;4.57;;;;;;;4.81;100.00;100736.63;5107921;27;20039;-65
2021/12/03 07:43:47;;;;;;;13.02;5.00;;;;;;;4.77;100.00;100734.41;5138291;27;20050;-65
2021/12/03 07:46:15;;;;;;;12.50;4.53;;;;;;;4.75;100.00;100741.13;5090440;27;20038;-65
2021/12/03 07:48:46;;;;;;;11.55;4.32;;;;;;;4.67;100.00;100736.09;5121755;27;20125;-65
2021/12/03 07:51:13;;;;;;;12.68;4.80;;;;;;;4.66;100.00;100735.28;5125353;27;20129;-65
2021/12/03 07:53:38;;;;;;;12.07;4.72;;;;;;;4.65;100.00;100725.50;5125610;27;20034;-64
2021/12/03 07:56:04;;;;;;;18.02;5.00;;;;;;;4.71;100.00;100731.84;5122854;27;20027;-64
2021/12/03 07:58:29;;;;;;;9.68;4.15;;;;;;;4.71;100.00;100724.50;5139802;27;20058;-65
2021/12/03 08:00:57;;;;;;;12.07;3.97;;;;;;;4.73;100.00;100730.53;5119467;27;20281;-65
2021/12/03 08:03:23;;;;;;;13.73;4.15;;;;;;;4.65;100.00;100720.06;5139278;27;20481;-65
2021/12/03 08:05:49;;;;;;;15.50;4.63;;;;;;;4.68;100.00;100714.13;5139669;27;20069;-65
2021/12/03 08:08:21;;;;;;;13.57;3.88;;;;;;;4.68;100.00;100716.84;5142252;27;20047;-66
2021/12/03 08:10:47;;;;;;;12.45;3.97;;;;;;;4.41;100.00;100719.34;5121776;27;20449;-65
2021/12/03 08:13:12;;;;;;;10.35;4.30;;;;;;;4.41;100.00;100709.34;5141742;27;20031;-65
2021/12/03 08:15:38;;;;;;;12.05;4.45;;;;;;;4.66;100.00;100705.41;5140800;27;20437;-65
2021/12/03 08:18:05;;;;;;;11.45;3.95;;;;;;;4.48;100.00;100713.81;5106746;27;20038;-65
2021/12/03 08:20:30;;;;;;;11.73;3.88;;;;;;;4.53;100.00;100706.56;5125229;27;20110;-65
2021/12/03 08:22:56;;;;;;;12.45;3.85;;;;;;;4.34;100.00;100708.66;5140593;27;20373;-64
2021/12/03 08:25:21;;;;;;;14.57;4.10;;;;;;;4.46;100.00;100695.03;5120774;27;20058;-64
2021/12/03 08:27:46;;;;;;;9.05;3.60;;;;;;;4.63;100.00;100697.75;5119694;27;20421;-64
2021/12/03 08:30:13;;;;;;;9.77;3.83;;;;;;;4.40;100.00;100694.13;5141438;27;20404;-64
2021/12/03 08:32:39;;;;;;;14.07;3.83;;;;;;;4.70;100.00;100692.16;5139776;27;20515;-63
2021/12/03 08:35:05;;;;;;;17.70;4.55;;;;;;;4.57;100.00;100688.69;5106601;27;20037;-64
2021/12/03 08:37:31;;;;;;;14.27;4.38;;;;;;;4.76;100.00;100688.47;5120435;27;20043;-64
2021/12/03 08:39:56;;;;;;;10.55;3.90;;;;;;;4.83;100.00;100686.41;5139436;27;20431;-65
2021/12/03 08:42:22;;;;;;;10.93;3.75;;;;;;;4.72;100.00;100693.59;5121264;27;20092;-64
2021/12/03 08:44:48;;;;;;;14.02;3.92;;;;;;;4.58;100.00;100697.69;5099990;27;20034;-64
2021/12/03 08:47:14;;;;;;;12.27;4.07;;;;;;;4.70;100.00;100686.75;5107091;27;20406;-64
2021/12/03 08:57:18;;;;;;;9.27;2.92;;;;;;;4.35;100.00;100674.22;5120415;27;20031;-66
2021/12/03 08:59:44;;;;;;;10.07;2.95;;;;;;;4.27;100.00;100664.56;5063055;27;20031;-65
2021/12/03 09:02:10;;;;;;;8.63;2.88;;;;;;;4.57;100.00;100658.00;5120580;27;20041;-65
2021/12/03 09:04:35;;;;;;;9.77;2.38;;;;;;;4.67;100.00;100646.50;5140942;27;20095;-65
2021/12/03 09:07:01;;;;;;;7.07;2.40;;;;;;;4.38;100.00;100639.25;5136906;27;20477;-66
2021/12/03 09:09:27;;;;;;;8.27;2.50;;;;;;;4.53;100.00;100648.72;5101048;27;20018;-65
2021/12/03 09:11:54;;;;;;;6.65;2.38;;;;;;;4.37;100.00;100644.94;5138578;27;20240;-65
2021/12/03 09:15:08;;;;;;;5.88;2.70;;;;;;;4.70;100.00;100646.00;5139192;27;20035;-65
2021/12/03 09:25:01;;;;;;;10.88;3.00;;;;;;;4.58;100.00;100640.66;5117097;27;20034;-64
2021/12/03 09:27:28;;;;;;;8.98;2.60;;;;;;;4.20;100.00;100632.16;5099148;27;20033;-64
2021/12/03 09:29:55;;;;;;;10.07;2.60;;;;;;;4.47;100.00;100623.38;5116941;27;20118;-65
2021/12/03 09:32:25;;;;;;;7.78;2.58;;;;;;;4.50;100.00;100635.66;5100555;27;20213;-64
2021/12/03 09:34:50;;;;;;;7.38;2.83;;;;;;;4.40;100.00;100628.16;5117809;27;20019;-64
2021/12/03 09:37:17;;;;;;;6.95;2.70;;;;;;;4.55;100.00;100625.69;5118656;27;20035;-65
2021/12/03 09:39:45;;;;;;;9.93;2.60;;;;;;;4.65;100.00;100614.16;5082156;27;20039;-65
2021/12/03 09:42:11;;;;;;;10.75;3.33;;;;;;;4.88;100.00;100609.59;5101200;27;20559;-65
2021/12/03 09:44:41;;;;;;;10.18;2.90;;;;;;;5.03;100.00;100612.53;5116989;27;20031;-65
2021/12/03 09:47:06;;;;;;;9.60;3.10;;;;;;;4.90;100.00;100586.56;5082380;27;20909;-65
2021/12/03 09:49:37;;;;;;;10.63;2.90;;;;;;;4.94;100.00;100587.69;5117745;27;20110;-64
2021/12/03 09:54:53;;;;;;;7.80;2.90;;;;;;;4.82;100.00;100584.28;5125608;27;20393;-64
2021/12/03 10:00:24;;;;;;;6.43;2.75;;;;;;;4.82;100.00;100591.59;5090205;27;20038;-64
2021/12/03 10:18:51;;;;;;;8.98;3.65;;;;;;;4.77;100.00;100551.59;5124560;27;20111;-65
2021/12/03 10:32:44;;;;;;;10.05;4.53;;;;;;;4.48;100.00;100540.88;5108937;27;20050;-67
2021/12/03 10:35:37;;;;;;;9.90;4.93;;;;;;;4.77;100.00;100535.28;5121754;27;20547;-64
2021/12/03 10:46:31;;;;;;;8.57;4.13;;;;;;;4.65;100.00;100521.81;5123787;27;20031;-64
2021/12/03 10:51:38;;;;;;;9.35;3.47;;;;;;;4.85;100.00;100504.16;5121940;27;20194;-65
2021/12/03 10:56:46;;;;;;;7.22;3.78;;;;;;;4.82;100.00;100493.78;5127534;27;20023;-65
2021/12/03 11:27:30;;;;;;;9.13;3.25;;;;;;;5.21;100.00;100432.03;5107211;27;20038;-64
2021/12/03 11:38:42;;;;;;;8.05;3.70;;;;;;;5.45;100.00;100423.56;5090376;27;20050;-65
2021/12/03 12:18:50;;;;;;;7.05;3.60;;;;;;;5.92;100.00;100351.28;5116761;27;20034;-64
2021/12/03 12:44:29;;;;;;;9.15;4.38;;;;;;;5.60;100.00;100344.00;5118578;27;20585;-65
2021/12/03 12:56:05;;;;;;;6.95;4.70;;;;;;;5.32;100.00;100319.59;5121809;27;20057;-64
2021/12/03 13:20:51;;;;;;;6.60;5.13;;;;;;;5.29;100.00;100264.94;5120416;27;20031;-65
2021/12/03 14:57:09;;;;;;;9.02;8.32;;;;;;;5.24;100.00;100205.13;5098914;27;20212;-67
2021/12/03 14:59:37;;;;;;;10.27;9.38;;;;;;;5.16;100.00;100200.97;5120549;27;20027;-67
2021/12/03 15:07:51;;;;;;;10.30;9.25;;;;;;;5.31;100.00;100187.50;5142169;27;20357;-66
2021/12/03 15:10:33;;;;;;;10.35;9.32;;;;;;;5.38;100.00;100194.59;5102330;27;20110;-66
2021/12/03 15:32:28;;;;;;;10.93;9.93;;;;;;;5.29;100.00;100167.09;5142707;27;20046;-67
2021/12/03 15:37:41;;;;;;;11.45;10.50;;;;;;;5.30;100.00;100176.91;5139979;27;20035;-68
2021/12/03 16:04:47;;;;;;;15.23;13.82;;;;;;;5.33;100.00;100162.78;5106104;27;20034;-67
2021/12/03 16:45:33;;;;;;;14.70;13.38;;;;;;;5.30;100.00;100164.13;5094807;27;20061;-67
2021/12/03 16:52:56;;;;;;;15.23;13.48;;;;;;;5.55;100.00;100157.16;5085898;27;20993;-67
2021/12/03 16:55:21;;;;;;;15.30;13.80;;;;;;;5.36;100.00;100150.53;5087883;27;20054;-67
2021/12/03 16:57:51;;;;;;;16.40;14.75;;;;;;;5.59;100.00;100146.56;5084373;27;21037;-67
2021/12/03 17:03:05;;;;;;;15.70;14.20;;;;;;;5.74;100.00;100137.63;5131319;27;20027;-67
2021/12/03 17:10:39;;;;;;;17.17;15.48;;;;;;;5.56;100.00;100119.91;5099617;27;20373;-67
2021/12/03 17:27:48;;;;;;;14.88;13.48;;;;;;;5.61;100.00;100095.47;5093994;27;20242;-68
2021/12/03 17:54:01;;;;;;;16.83;15.13;;;;;;;5.79;100.00;100105.84;5123323;27;20418;-67
2021/12/03 17:56:29;;;;;;;;;;;;;;;5.65;100.00;100100.09;5102262;27;20031;-67
2021/12/03 17:59:09;;;;;;;17.42;15.63;;;;;;;5.95;100.00;100084.94;5130408;27;19974;-67
2021/12/03 18:01:47;;;;;;;17.13;15.32;;;;;;;5.71;100.00;100088.13;5123734;27;20113;-66
2021/12/03 18:04:23;;;;;;;17.33;15.32;;;;;;;5.75;100.00;100071.28;5143830;27;20052;-68
2021/12/03 18:07:04;;;;;;;18.08;16.13;;;;;;;5.76;100.00;100078.38;5124781;27;20034;-68
2021/12/03 18:10:00;;;;;;;18.45;15.95;;;;;;;5.87;100.00;100085.44;5139161;27;20102;-66
2021/12/03 18:15:38;;;;;;;17.23;15.52;;;;;;;5.88;100.00;100079.72;5142468;27;20421;-66
2021/12/03 18:18:23;;;;;;;17.55;15.55;;;;;;;5.93;100.00;100091.72;5142277;27;20026;-66
2021/12/03 18:56:54;;;;;;;19.40;16.75;;;;;;;5.44;100.00;100098.38;5142033;27;20269;-66
2021/12/03 18:58:56;;;;;;;19.42;16.85;;;;;;;5.75;100.00;100096.56;5128897;27;20255;-68
2021/12/03 19:01:27;;;;;;;19.60;17.60;;;;;;;5.60;100.00;100089.19;5124773;27;20031;-67
2021/12/03 19:06:56;;;;;;;19.50;16.83;;;;;;;5.70;100.00;100100.09;5119540;27;20452;-65
2021/12/03 19:09:32;;;;;;;19.77;17.65;;;;;;;5.53;100.00;100083.19;5138462;27;20075;-66
2021/12/03 19:14:25;;;;;;;20.85;17.63;;;;;;;5.68;100.00;100063.38;5118213;27;20105;-66